Time;durP1;ratioP1;P1;durP2;ratioP2;P2;SDS_P1;SDS_P2;PMS_P1;PMS_P2;Temp;Humidity;BMP_temperature;BMP_pressure;BME280_temperature;BME280_humidity;BME280_pressure;Samples;Min_cycle;Max_cycle;Signal;HPM_P1;HPM_P2
2023/05/11 00:01:54;;;;;;;6.00;5.50;;;14.50;99.40;;;;;;5096971;28;20082;-83
2023/05/11 00:04:20;;;;;;;5.88;5.38;;;14.50;99.70;;;;;;5096714;28;20028;-83
2023/05/11 00:06:45;;;;;;;6.22;5.20;;;14.60;99.00;;;;;;5078513;28;20028;-84
2023/05/11 00:09:12;;;;;;;5.97;5.47;;;14.60;99.10;;;;;;5088360;28;20124;-84
2023/05/11 00:11:37;;;;;;;6.80;5.68;;;14.60;99.20;;;;;;5087624;28;20077;-83
2023/05/11 00:14:03;;;;;;;5.63;5.22;;;14.60;98.80;;;;;;5078492;28;20351;-84
2023/05/11 00:16:29;;;;;;;5.93;5.40;;;14.60;99.00;;;;;;5096740;28;20073;-83
2023/05/11 00:18:55;;;;;;;5.82;5.20;;;14.60;98.50;;;;;;5078560;28;20028;-84
2023/05/11 00:21:21;;;;;;;5.60;5.10;;;14.60;98.40;;;;;;5078310;28;20024;-83
2023/05/11 00:23:48;;;;;;;5.82;5.32;;;14.60;98.30;;;;;;5078748;28;20024;-83
2023/05/11 00:26:14;;;;;;;5.85;5.38;;;14.60;98.60;;;;;;5078459;28;20028;-83
2023/05/11 00:28:40;;;;;;;7.13;5.88;;;14.60;98.20;;;;;;5077976;28;20512;-84
2023/05/11 00:31:05;;;;;;;5.90;5.30;;;14.60;98.20;;;;;;5096585;28;20435;-84
2023/05/11 00:33:31;;;;;;;6.10;5.60;;;14.60;97.90;;;;;;5078021;28;20028;-84
2023/05/11 00:35:57;;;;;;;5.78;5.18;;;14.60;98.10;;;;;;5078218;28;20027;-84
2023/05/11 00:38:23;;;;;;;5.63;5.05;;;14.60;98.10;;;;;;5078129;28;20043;-83
2023/05/11 00:40:49;;;;;;;5.53;5.05;;;14.60;98.20;;;;;;5077671;28;20083;-84
2023/05/11 00:43:15;;;;;;;8.93;5.68;;;14.60;98.00;;;;;;5078205;28;20451;-83
2023/05/11 00:45:41;;;;;;;6.25;5.78;;;14.60;98.40;;;;;;5096502;28;20028;-84
2023/05/11 00:48:07;;;;;;;5.95;5.15;;;14.60;98.40;;;;;;5077635;28;20028;-84
2023/05/11 00:50:34;;;;;;;6.40;5.00;;;14.50;97.50;;;;;;5077600;28;20158;-84
2023/05/11 00:53:00;;;;;;;6.25;5.65;;;14.50;98.10;;;;;;5078112;28;20020;-83
2023/05/11 00:55:27;;;;;;;5.55;5.05;;;14.50;97.80;;;;;;5075374;28;20515;-83
2023/05/11 00:57:53;;;;;;;5.07;4.68;;;14.60;98.00;;;;;;5057267;28;20048;-84
2023/05/11 01:00:19;;;;;;;8.43;6.15;;;14.50;97.90;;;;;;5095360;28;20027;-84
2023/05/11 01:02:45;;;;;;;6.70;5.90;;;14.60;97.80;;;;;;5095397;28;20035;-82
2023/05/11 01:05:11;;;;;;;5.40;4.95;;;14.50;97.60;;;;;;5077687;28;20027;-84
2023/05/11 01:08:12;;;;;;;6.13;5.50;;;14.50;97.80;;;;;;5077564;28;20032;-83
2023/05/11 01:10:59;;;;;;;6.10;5.50;;;14.50;97.30;;;;;;5077338;28;20020;-84
2023/05/11 01:13:32;;;;;;;5.97;5.47;;;14.50;97.40;;;;;;5077698;28;20024;-81
2023/05/11 01:16:03;;;;;;;5.97;5.32;;;14.50;97.30;;;;;;5095351;28;20020;-82
2023/05/11 01:18:37;;;;;;;6.00;5.50;;;14.50;97.40;;;;;;5077479;28;20470;-83
2023/05/11 01:21:04;;;;;;;6.57;5.97;;;14.40;97.10;;;;;;5077405;28;20028;-83
2023/05/11 01:23:54;;;;;;;6.68;6.07;;;14.40;97.20;;;;;;5077012;28;20026;-83
2023/05/11 01:27:02;;;;;;;5.40;5.00;;;14.40;97.10;;;;;;5077366;28;20036;-84
2023/05/11 01:29:46;;;;;;;6.50;5.40;;;14.40;97.40;;;;;;5095333;28;20032;-85
2023/05/11 01:32:22;;;;;;;6.57;5.97;;;14.40;97.10;;;;;;5077217;28;20025;-85
2023/05/11 01:34:56;;;;;;;5.60;5.20;;;14.40;97.20;;;;;;5077366;28;20157;-83
2023/05/11 01:37:24;;;;;;;5.20;4.80;;;14.40;96.70;;;;;;5094654;28;20028;-81
2023/05/11 01:39:57;;;;;;;5.70;5.20;;;14.40;96.80;;;;;;5077081;28;20028;-83
2023/05/11 01:42:42;;;;;;;5.82;5.25;;;14.40;96.70;;;;;;5077007;28;20101;-84
2023/05/11 01:45:10;;;;;;;5.88;5.38;;;14.40;96.80;;;;;;5094861;28;20485;-83
2023/05/11 01:47:39;;;;;;;6.70;6.10;;;14.40;96.60;;;;;;5094952;28;20086;-84
2023/05/11 01:50:06;;;;;;;5.50;5.10;;;14.40;96.70;;;;;;5076901;28;20109;-83
2023/05/11 01:52:34;;;;;;;5.53;5.07;;;14.40;96.70;;;;;;5076428;28;20020;-84
2023/05/11 01:55:03;;;;;;;5.65;5.15;;;14.40;96.60;;;;;;5076788;28;20024;-84
2023/05/11 01:57:31;;;;;;;6.38;5.68;;;14.40;96.60;;;;;;5076146;28;20130;-82
2023/05/11 01:59:58;;;;;;;5.70;5.18;;;14.40;96.40;;;;;;5076670;28;20051;-82
2023/05/11 02:02:26;;;;;;;5.70;5.20;;;14.40;96.50;;;;;;5093897;28;20016;-83
2023/05/11 02:04:53;;;;;;;6.38;5.78;;;14.40;96.60;;;;;;5074223;28;20024;-84
2023/05/11 02:07:21;;;;;;;5.80;5.30;;;14.40;96.90;;;;;;5070730;28;20115;-83
2023/05/11 02:09:48;;;;;;;6.05;5.45;;;14.40;96.70;;;;;;5073087;28;20032;-82
2023/05/11 02:12:18;;;;;;;5.88;5.28;;;14.40;96.90;;;;;;5072712;28;20029;-83
2023/05/11 02:14:46;;;;;;;6.00;5.47;;;14.40;97.10;;;;;;5073046;28;20086;-86
2023/05/11 02:17:14;;;;;;;5.65;5.15;;;14.40;97.50;;;;;;5072879;28;20032;-83
2023/05/11 02:19:43;;;;;;;5.68;5.18;;;14.40;97.40;;;;;;5072645;28;20067;-81
2023/05/11 02:22:10;;;;;;;6.20;5.70;;;14.40;97.30;;;;;;5074082;28;20024;-82
2023/05/11 02:24:36;;;;;;;6.28;5.78;;;14.40;97.50;;;;;;5076333;28;20048;-80
2023/05/11 02:27:02;;;;;;;6.45;5.88;;;14.30;97.30;;;;;;5075857;28;20032;-81
2023/05/11 02:29:28;;;;;;;5.50;5.00;;;14.40;97.40;;;;;;5076110;28;20028;-84
2023/05/11 02:32:07;;;;;;;6.22;5.57;;;14.40;97.80;;;;;;5076088;28;20028;-80
2023/05/11 02:34:46;;;;;;;5.55;5.05;;;14.40;97.70;;;;;;5075933;28;20076;-82
2023/05/11 02:37:17;;;;;;;5.72;5.22;;;14.40;97.80;;;;;;5076151;28;20043;-79
2023/05/11 02:39:45;;;;;;;5.80;5.30;;;14.40;97.50;;;;;;5075838;28;20024;-82
2023/05/11 02:42:22;;;;;;;6.72;6.13;;;14.40;97.60;;;;;;5076061;28;20024;-81
2023/05/11 02:44:56;;;;;;;5.97;5.43;;;14.40;98.00;;;;;;5075514;28;20115;-81
2023/05/11 02:47:27;;;;;;;5.78;5.28;;;14.30;97.90;;;;;;5075601;28;20032;-82
2023/05/11 02:49:56;;;;;;;6.27;5.67;;;14.40;97.90;;;;;;5076119;28;20028;-82
2023/05/11 02:52:24;;;;;;;6.22;5.63;;;14.30;97.90;;;;;;5094060;28;20248;-81
2023/05/11 02:54:52;;;;;;;5.90;5.40;;;14.30;98.30;;;;;;5075549;28;20024;-82
2023/05/11 02:57:18;;;;;;;6.68;6.07;;;14.30;98.20;;;;;;5081945;28;20387;-80
2023/05/11 02:59:45;;;;;;;6.30;5.80;;;14.30;98.10;;;;;;5075793;28;20069;-81
2023/05/11 03:02:11;;;;;;;7.80;5.90;;;14.30;98.30;;;;;;5075367;28;20024;-81
2023/05/11 03:04:38;;;;;;;5.63;5.13;;;14.30;98.30;;;;;;5075807;28;20081;-82
2023/05/11 03:07:05;;;;;;;6.50;5.88;;;14.30;98.60;;;;;;5075735;28;20024;-81
2023/05/11 03:09:32;;;;;;;6.57;5.57;;;14.30;98.40;;;;;;5093154;28;20446;-81
2023/05/11 03:11:59;;;;;;;5.85;5.35;;;14.30;98.50;;;;;;5075373;28;20434;-82
2023/05/11 03:14:26;;;;;;;6.72;6.13;;;14.20;98.40;;;;;;5097241;28;20480;-80
2023/05/11 03:16:53;;;;;;;6.97;6.38;;;14.20;98.80;;;;;;5079956;28;20060;-80
2023/05/11 03:19:19;;;;;;;6.53;5.57;;;14.20;98.80;;;;;;5079699;28;20077;-82
2023/05/11 03:21:46;;;;;;;5.57;5.05;;;14.30;98.90;;;;;;5079391;28;20024;-80
2023/05/11 03:24:12;;;;;;;5.35;4.85;;;14.20;98.80;;;;;;5079636;28;20114;-82
2023/05/11 03:26:40;;;;;;;6.07;5.47;;;14.20;99.00;;;;;;5079724;28;20422;-82
2023/05/11 03:29:07;;;;;;;6.35;5.45;;;14.30;99.40;;;;;;5079217;28;20027;-82
2023/05/11 03:31:33;;;;;;;5.72;5.22;;;14.20;99.10;;;;;;5097959;28;20031;-84
2023/05/11 03:33:59;;;;;;;5.97;5.47;;;14.20;99.20;;;;;;5079652;28;20366;-80
2023/05/11 03:36:26;;;;;;;6.57;5.35;;;14.20;99.30;;;;;;5079012;28;20069;-82
2023/05/11 03:38:55;;;;;;;8.20;5.05;;;14.20;99.50;;;;;;5079397;28;20020;-82
2023/05/11 03:41:22;;;;;;;6.15;5.55;;;14.20;99.60;;;;;;5079007;28;20024;-83
2023/05/11 03:43:51;;;;;;;5.78;5.28;;;14.20;99.90;;;;;;5097408;28;20027;-82
2023/05/11 03:46:20;;;;;;;6.40;5.90;;;14.20;99.60;;;;;;5079184;28;20026;-82
2023/05/11 03:48:46;;;;;;;5.90;5.40;;;14.20;99.60;;;;;;5079145;28;20111;-80
2023/05/11 03:51:12;;;;;;;6.15;5.63;;;14.20;99.80;;;;;;5078765;28;20024;-83
2023/05/11 03:53:39;;;;;;;6.22;5.72;;;14.20;99.70;;;;;;5079077;28;20389;-82
2023/05/11 03:56:08;;;;;;;5.70;5.20;;;14.20;99.80;;;;;;5075327;28;20044;-81
2023/05/11 03:58:38;;;;;;;8.52;5.65;;;14.20;99.90;;;;;;5075257;28;20032;-80
2023/05/11 04:01:07;;;;;;;6.47;5.88;;;14.20;99.80;;;;;;5075733;28;20071;-80
2023/05/11 04:03:33;;;;;;;6.35;5.85;;;14.20;99.80;;;;;;5076552;28;20029;-80
2023/05/11 04:05:59;;;;;;;5.78;5.25;;;14.20;99.90;;;;;;5075491;28;20036;-81
2023/05/11 04:08:24;;;;;;;6.00;5.18;;;14.20;99.90;;;;;;5075448;28;20119;-81
2023/05/11 04:10:50;;;;;;;5.93;5.43;;;14.10;99.90;;;;;;5075051;28;20051;-81
2023/05/11 04:13:16;;;;;;;6.20;5.70;;;14.10;99.90;;;;;;5075375;28;20035;-80
2023/05/11 04:15:42;;;;;;;6.32;5.82;;;14.10;99.90;;;;;;5076623;28;20032;-83
2023/05/11 04:18:07;;;;;;;5.07;4.60;;;14.10;99.90;;;;;;5074913;28;20375;-80
2023/05/11 04:20:33;;;;;;;5.38;4.97;;;14.10;99.90;;;;;;5075271;28;20367;-81
2023/05/11 04:22:59;;;;;;;6.80;6.20;;;14.10;99.90;;;;;;5075288;28;20024;-81
2023/05/11 04:25:26;;;;;;;6.07;5.47;;;14.20;99.90;;;;;;5074114;28;20402;-82
2023/05/11 04:27:52;;;;;;;5.75;5.25;;;14.20;99.90;;;;;;5075093;28;20028;-81
2023/05/11 04:30:19;;;;;;;5.93;5.32;;;14.20;99.90;;;;;;5075060;28;20046;-80
2023/05/11 04:32:45;;;;;;;5.47;5.03;;;14.30;99.90;;;;;;5075812;28;20021;-81
2023/05/11 04:35:10;;;;;;;5.80;5.22;;;14.20;99.90;;;;;;5075035;28;20032;-80
2023/05/11 04:37:36;;;;;;;6.35;5.75;;;14.30;99.90;;;;;;5076157;28;20043;-82
2023/05/11 04:40:03;;;;;;;6.15;5.10;;;14.30;99.90;;;;;;5074575;28;20115;-82
2023/05/11 04:42:30;;;;;;;5.97;5.50;;;14.30;99.90;;;;;;5076234;28;20025;-80
2023/05/11 04:44:55;;;;;;;5.55;5.05;;;14.30;99.90;;;;;;5074937;28;20024;-82
2023/05/11 04:47:21;;;;;;;6.40;5.05;;;14.40;99.90;;;;;;5074326;28;20094;-81
2023/05/11 04:49:47;;;;;;;6.18;5.22;;;14.40;99.90;;;;;;5074705;28;20028;-80
2023/05/11 04:52:13;;;;;;;6.13;5.10;;;14.50;99.60;;;;;;5075615;28;20063;-81
2023/05/11 04:54:38;;;;;;;5.22;4.75;;;14.50;99.90;;;;;;5074360;28;20447;-79
2023/05/11 04:57:04;;;;;;;5.38;4.88;;;14.50;99.50;;;;;;5074072;28;20091;-80
2023/05/11 04:59:30;;;;;;;5.72;5.22;;;14.50;99.80;;;;;;5074212;28;20024;-81
2023/05/11 05:01:56;;;;;;;5.22;4.82;;;14.60;99.70;;;;;;5074514;28;20093;-80
2023/05/11 05:04:21;;;;;;;6.15;5.55;;;14.60;99.50;;;;;;5074539;28;20020;-83
2023/05/11 05:06:47;;;;;;;8.30;6.18;;;14.60;99.40;;;;;;5074124;28;20055;-80
2023/05/11 05:09:13;;;;;;;8.77;5.82;;;14.60;99.30;;;;;;5075393;28;20032;-80
2023/05/11 05:11:39;;;;;;;6.15;5.55;;;14.60;99.00;;;;;;5074428;28;20021;-80
2023/05/11 05:14:04;;;;;;;6.47;5.60;;;14.60;98.90;;;;;;5073911;28;20419;-81
2023/05/11 05:16:30;;;;;;;6.20;5.60;;;14.70;99.70;;;;;;5067228;28;20029;-81
2023/05/11 05:18:56;;;;;;;5.85;5.25;;;14.70;99.10;;;;;;5057700;28;20111;-80
2023/05/11 05:21:22;;;;;;;11.60;5.53;;;14.70;99.50;;;;;;5074156;28;20077;-82
2023/05/11 05:23:48;;;;;;;7.75;5.53;;;14.80;99.70;;;;;;5074117;28;20016;-79
2023/05/11 05:26:14;;;;;;;6.72;6.03;;;14.80;99.70;;;;;;5074097;28;20021;-81
2023/05/11 05:28:39;;;;;;;6.53;5.43;;;14.80;99.50;;;;;;5073546;28;20024;-80
2023/05/11 05:31:05;;;;;;;6.28;5.75;;;14.80;99.90;;;;;;5073678;28;20082;-80
2023/05/11 05:33:31;;;;;;;6.57;6.07;;;14.80;99.90;;;;;;5073873;28;20031;-79
2023/05/11 05:35:57;;;;;;;8.45;6.10;;;14.80;99.90;;;;;;5072919;28;20348;-81
2023/05/11 05:38:22;;;;;;;6.10;5.53;;;14.80;99.90;;;;;;5073256;28;20036;-79
2023/05/11 05:40:48;;;;;;;6.78;5.40;;;14.80;99.90;;;;;;5075413;28;20099;-79
2023/05/11 05:43:14;;;;;;;6.53;5.70;;;14.80;99.90;;;;;;5074564;28;20398;-80
2023/05/11 05:45:40;;;;;;;7.43;6.70;;;14.80;99.90;;;;;;5073594;28;20520;-82
2023/05/11 05:48:06;;;;;;;7.20;5.72;;;14.80;99.90;;;;;;5073541;28;20457;-82
2023/05/11 05:50:32;;;;;;;6.82;6.13;;;14.70;99.90;;;;;;5074402;28;20024;-81
2023/05/11 05:52:58;;;;;;;7.53;6.07;;;14.70;99.90;;;;;;5074670;28;20029;-80
2023/05/11 05:55:23;;;;;;;6.85;6.05;;;14.70;99.90;;;;;;5073050;28;20032;-81
2023/05/11 05:57:49;;;;;;;7.93;6.15;;;14.60;99.90;;;;;;5060223;28;20399;-81
2023/05/11 06:00:16;;;;;;;6.68;6.00;;;14.70;99.90;;;;;;5073416;28;20020;-81
2023/05/11 06:02:41;;;;;;;6.80;6.00;;;14.60;99.90;;;;;;5073254;28;20048;-79
2023/05/11 06:05:08;;;;;;;6.90;6.30;;;14.70;99.90;;;;;;5074156;28;20549;-81
2023/05/11 06:07:33;;;;;;;6.93;6.18;;;14.60;99.90;;;;;;5074569;28;20055;-81
2023/05/11 06:09:59;;;;;;;7.18;6.55;;;14.70;99.90;;;;;;5073871;28;20032;-82
2023/05/11 06:12:25;;;;;;;7.72;6.97;;;14.60;99.90;;;;;;5072910;28;20031;-83
2023/05/11 06:14:51;;;;;;;7.45;6.72;;;14.60;99.90;;;;;;5073149;28;20027;-82
2023/05/11 06:17:17;;;;;;;7.50;6.28;;;14.70;99.90;;;;;;5072720;28;20040;-80
2023/05/11 06:19:43;;;;;;;6.47;5.88;;;14.70;99.90;;;;;;5074456;28;20459;-81
2023/05/11 06:22:08;;;;;;;6.65;6.05;;;14.70;99.90;;;;;;5074277;28;20071;-82
2023/05/11 06:24:34;;;;;;;8.80;7.00;;;14.70;99.90;;;;;;5072580;28;20025;-82
2023/05/11 06:27:01;;;;;;;7.80;6.63;;;14.80;99.90;;;;;;5072913;28;20029;-83
2023/05/11 06:29:27;;;;;;;7.38;6.18;;;14.80;99.90;;;;;;5073945;28;20107;-80
2023/05/11 06:31:54;;;;;;;6.72;5.97;;;14.80;99.90;;;;;;5072402;28;20116;-83
2023/05/11 06:34:21;;;;;;;7.45;6.65;;;14.80;99.90;;;;;;5073650;28;20040;-84
2023/05/11 06:36:47;;;;;;;8.68;6.60;;;15.00;99.90;;;;;;5072641;28;20446;-81
2023/05/11 06:39:13;;;;;;;7.35;6.65;;;15.00;99.90;;;;;;5072223;28;20025;-81
2023/05/11 06:41:39;;;;;;;8.07;6.50;;;14.90;99.90;;;;;;5072692;28;20025;-81
2023/05/11 06:44:05;;;;;;;9.18;7.80;;;15.10;99.90;;;;;;5072651;28;20074;-83
2023/05/11 06:46:31;;;;;;;8.43;6.47;;;15.20;99.90;;;;;;5073618;28;20078;-82
2023/05/11 06:48:57;;;;;;;10.90;8.02;;;15.10;99.90;;;;;;5072154;28;20052;-82
2023/05/11 06:51:23;;;;;;;9.27;6.60;;;15.20;99.90;;;;;;5068148;28;20052;-83
2023/05/11 06:53:49;;;;;;;7.85;7.10;;;15.30;99.90;;;;;;5053303;28;20021;-81
2023/05/11 06:56:15;;;;;;;10.60;7.18;;;15.40;99.90;;;;;;5072235;28;20158;-81
2023/05/11 06:58:42;;;;;;;9.85;6.95;;;15.50;99.90;;;;;;5071849;28;20498;-81
2023/05/11 07:01:09;;;;;;;11.35;8.10;;;15.60;99.90;;;;;;5072480;28;20024;-82
2023/05/11 07:03:35;;;;;;;7.68;6.85;;;15.80;99.90;;;;;;5060232;28;20370;-83
2023/05/11 07:06:01;;;;;;;11.63;7.60;;;16.00;99.90;;;;;;5061187;28;20020;-80
2023/05/11 07:08:27;;;;;;;18.45;8.88;;;16.10;99.90;;;;;;5073565;28;20032;-80
2023/05/11 07:10:53;;;;;;;8.27;6.40;;;16.20;99.90;;;;;;5073571;28;20025;-81
2023/05/11 07:13:19;;;;;;;6.70;6.00;;;16.40;99.90;;;;;;5071612;28;20051;-81
2023/05/11 07:15:45;;;;;;;8.63;6.25;;;16.40;99.90;;;;;;5071902;28;20035;-80
2023/05/11 07:18:10;;;;;;;9.27;5.47;;;16.50;99.90;;;;;;5073154;28;20459;-82
2023/05/11 07:20:36;;;;;;;6.63;5.75;;;16.60;99.90;;;;;;5071619;28;20028;-81
2023/05/11 07:23:02;;;;;;;7.57;6.55;;;16.70;99.90;;;;;;5072319;28;20020;-80
2023/05/11 07:25:28;;;;;;;7.72;6.93;;;16.60;99.90;;;;;;5073822;28;20439;-81
2023/05/11 07:27:54;;;;;;;7.20;5.78;;;16.70;99.90;;;;;;5073114;28;20028;-82
2023/05/11 07:30:21;;;;;;;6.38;5.78;;;16.60;99.90;;;;;;5073195;28;20021;-79
2023/05/11 07:32:47;;;;;;;7.80;6.68;;;16.50;99.40;;;;;;5072234;28;20021;-81
2023/05/11 07:35:14;;;;;;;8.40;5.47;;;16.40;98.90;;;;;;5071804;28;20028;-81
2023/05/11 07:37:40;;;;;;;7.13;6.00;;;16.40;99.90;;;;;;5073318;28;20029;-81
2023/05/11 07:40:07;;;;;;;6.53;5.65;;;16.10;99.60;;;;;;5072148;28;20111;-80
2023/05/11 07:42:32;;;;;;;9.32;6.95;;;16.10;99.30;;;;;;5071655;28;20032;-80
2023/05/11 07:44:58;;;;;;;8.35;6.40;;;16.10;99.90;;;;;;5073187;28;20025;-81
2023/05/11 07:47:24;;;;;;;9.07;6.55;;;16.00;99.90;;;;;;5071613;28;20035;-82
2023/05/11 07:49:50;;;;;;;8.20;5.80;;;16.00;99.90;;;;;;5072180;28;20055;-80
2023/05/11 07:52:16;;;;;;;7.35;6.03;;;16.00;99.90;;;;;;5072085;28;20512;-81
2023/05/11 07:54:42;;;;;;;7.22;6.50;;;16.00;99.90;;;;;;5072955;28;20021;-81
2023/05/11 07:57:10;;;;;;;8.95;6.72;;;15.90;99.90;;;;;;5086929;28;20505;-80
2023/05/11 07:59:36;;;;;;;6.57;5.97;;;16.00;99.90;;;;;;5094006;28;20039;-82
2023/05/11 08:02:03;;;;;;;7.43;6.47;;;16.00;99.90;;;;;;5096895;28;20028;-81
2023/05/11 08:04:29;;;;;;;7.22;6.43;;;15.90;99.90;;;;;;5078842;28;20028;-80
2023/05/11 08:06:55;;;;;;;6.28;5.68;;;15.80;99.90;;;;;;5097088;28;20115;-81
2023/05/11 08:09:21;;;;;;;8.50;6.65;;;15.70;99.90;;;;;;5096613;28;20024;-80
2023/05/11 08:11:48;;;;;;;6.35;5.70;;;15.60;99.90;;;;;;5097114;28;20020;-81
2023/05/11 08:14:14;;;;;;;8.55;5.75;;;15.60;99.90;;;;;;5078703;28;20047;-81
2023/05/11 08:16:40;;;;;;;9.07;6.68;;;15.50;99.90;;;;;;5064017;28;20028;-81
2023/05/11 08:19:06;;;;;;;10.43;7.90;;;15.50;99.90;;;;;;5069830;28;20416;-82
2023/05/11 08:21:32;;;;;;;9.35;6.78;;;15.40;99.90;;;;;;5078318;28;20076;-83
2023/05/11 08:23:58;;;;;;;8.80;6.95;;;15.50;99.90;;;;;;5078183;28;20111;-82
2023/05/11 08:26:24;;;;;;;9.73;7.70;;;15.40;99.90;;;;;;5078482;28;20031;-82
2023/05/11 08:28:51;;;;;;;14.07;8.82;;;15.40;99.90;;;;;;5078453;28;20161;-82
2023/05/11 08:31:17;;;;;;;9.43;7.65;;;15.40;99.90;;;;;;5078131;28;20028;-82
2023/05/11 08:33:43;;;;;;;10.63;7.38;;;15.40;99.90;;;;;;5078347;28;20378;-82
2023/05/11 08:36:12;;;;;;;8.27;7.47;;;15.40;99.90;;;;;;5078378;28;20028;-83
2023/05/11 08:38:38;;;;;;;10.77;6.97;;;15.40;99.90;;;;;;5077832;28;20067;-81
2023/05/11 08:41:04;;;;;;;8.23;7.38;;;15.40;99.90;;;;;;5078419;28;20063;-80
2023/05/11 08:43:33;;;;;;;8.00;6.32;;;15.50;99.90;;;;;;5077945;28;20428;-80
2023/05/11 08:46:02;;;;;;;10.23;7.28;;;15.50;99.90;;;;;;5078126;28;20024;-80
2023/05/11 08:48:29;;;;;;;8.82;7.82;;;15.50;99.90;;;;;;5095871;28;20027;-81
2023/05/11 08:50:55;;;;;;;8.50;6.70;;;15.50;99.90;;;;;;5077757;28;20370;-81
2023/05/11 08:53:22;;;;;;;8.10;7.25;;;15.60;99.90;;;;;;5076907;28;20028;-80
2023/05/11 08:55:49;;;;;;;7.97;7.07;;;15.70;99.90;;;;;;5095232;28;20028;-80
2023/05/11 08:58:19;;;;;;;8.38;6.03;;;15.80;99.90;;;;;;5077641;28;20039;-81
2023/05/11 09:00:47;;;;;;;11.35;8.30;;;15.80;99.90;;;;;;5077961;28;20023;-82
2023/05/11 09:03:14;;;;;;;11.00;8.02;;;16.00;99.90;;;;;;5077769;28;20028;-82
2023/05/11 09:05:42;;;;;;;16.40;8.75;;;16.00;99.90;;;;;;5095593;28;20024;-80
2023/05/11 09:08:10;;;;;;;14.35;8.48;;;16.10;99.90;;;;;;5077739;28;20032;-80
2023/05/11 09:10:36;;;;;;;9.50;8.10;;;16.20;99.90;;;;;;5074385;28;20031;-80
2023/05/11 09:13:02;;;;;;;8.07;7.18;;;16.40;99.90;;;;;;5092305;28;20095;-80
2023/05/11 09:15:28;;;;;;;7.95;7.15;;;16.40;99.90;;;;;;5095473;28;20105;-79
2023/05/11 09:17:54;;;;;;;8.30;7.35;;;16.50;99.90;;;;;;5095821;28;20023;-79
2023/05/11 09:20:28;;;;;;;8.50;7.70;;;16.70;99.90;;;;;;5077096;28;20027;-81
2023/05/11 09:22:55;;;;;;;6.90;6.20;;;16.80;99.90;;;;;;5077483;28;20027;-81
2023/05/11 09:25:22;;;;;;;9.15;7.25;;;16.90;99.90;;;;;;5077028;28;20089;-83
2023/05/11 09:27:48;;;;;;;8.00;6.05;;;17.00;99.30;;;;;;5077220;28;20036;-81
2023/05/11 09:30:18;;;;;;;8.35;6.50;;;17.00;98.50;;;;;;5077340;28;20024;-81
2023/05/11 09:32:51;;;;;;;6.60;6.00;;;17.10;97.90;;;;;;5077063;28;20059;-82
2023/05/11 09:35:31;;;;;;;8.23;6.15;;;17.10;98.50;;;;;;5077190;28;20077;-80
2023/05/11 09:38:11;;;;;;;14.52;8.35;;;17.00;96.00;;;;;;5077027;28;20119;-83
2023/05/11 09:40:48;;;;;;;7.97;7.18;;;17.10;97.60;;;;;;5094635;28;20024;-80
2023/05/11 09:43:25;;;;;;;7.25;6.55;;;17.10;96.50;;;;;;5095506;28;20455;-80
2023/05/11 09:45:56;;;;;;;6.72;6.10;;;17.20;96.50;;;;;;5077127;28;20125;-81
2023/05/11 09:48:28;;;;;;;7.50;6.68;;;17.20;96.00;;;;;;5076509;28;20062;-81
2023/05/11 09:51:06;;;;;;;8.05;7.25;;;17.20;95.60;;;;;;5076803;28;20020;-80
2023/05/11 09:53:41;;;;;;;9.20;7.00;;;17.20;96.40;;;;;;5094979;28;20016;-82
2023/05/11 09:56:07;;;;;;;7.50;6.72;;;17.30;96.30;;;;;;5076750;28;20040;-82
2023/05/11 09:58:50;;;;;;;10.07;7.10;;;17.30;97.00;;;;;;5094909;28;20114;-80
2023/05/11 10:01:26;;;;;;;8.77;7.30;;;17.40;95.70;;;;;;5074672;28;20417;-80
2023/05/11 10:03:52;;;;;;;7.43;6.55;;;17.40;95.30;;;;;;5056775;28;20482;-79
2023/05/11 10:06:19;;;;;;;7.82;6.97;;;17.30;94.50;;;;;;5074073;28;20477;-80
2023/05/11 10:08:46;;;;;;;8.02;7.22;;;17.40;95.40;;;;;;5094554;28;20339;-80
2023/05/11 10:11:12;;;;;;;6.88;6.25;;;17.40;95.40;;;;;;5076487;28;20021;-79
2023/05/11 10:13:38;;;;;;;6.53;5.90;;;17.40;95.60;;;;;;5094934;28;20474;-80
2023/05/11 10:16:07;;;;;;;7.03;6.32;;;17.30;95.70;;;;;;5094273;28;20451;-80
2023/05/11 10:18:35;;;;;;;10.25;7.72;;;17.20;96.80;;;;;;5076321;28;20054;-80
2023/05/11 10:21:02;;;;;;;12.70;7.90;;;17.10;98.40;;;;;;5076083;28;20035;-80
2023/05/11 10:23:29;;;;;;;7.55;6.85;;;17.00;99.90;;;;;;5075440;28;20067;-81
2023/05/11 10:25:56;;;;;;;7.60;6.90;;;16.90;99.90;;;;;;5094134;28;20523;-80
2023/05/11 10:28:22;;;;;;;7.72;6.70;;;16.70;99.90;;;;;;5093597;28;20374;-82
2023/05/11 10:30:49;;;;;;;8.32;7.22;;;16.60;99.90;;;;;;5094347;28;20118;-80
2023/05/11 10:33:16;;;;;;;7.63;6.93;;;16.60;99.90;;;;;;5094043;28;20032;-81
2023/05/11 10:35:44;;;;;;;9.43;7.70;;;16.40;99.90;;;;;;5075769;28;20023;-81
2023/05/11 10:38:12;;;;;;;9.13;7.65;;;16.40;99.90;;;;;;5076046;28;20032;-80
2023/05/11 10:40:40;;;;;;;12.40;8.40;;;16.40;99.90;;;;;;5093967;28;20020;-81
2023/05/11 10:43:21;;;;;;;12.88;7.80;;;16.40;99.90;;;;;;5093981;28;20122;-81
2023/05/11 10:46:28;;;;;;;8.63;7.68;;;16.40;99.90;;;;;;5094554;28;20488;-80
2023/05/11 10:49:27;;;;;;;9.13;8.23;;;16.40;99.90;;;;;;5073919;28;20114;-82
2023/05/11 10:52:18;;;;;;;9.13;7.50;;;16.40;99.90;;;;;;5062223;28;20462;-81
2023/05/11 10:55:12;;;;;;;8.43;7.45;;;16.40;99.90;;;;;;5094163;28;20027;-80
2023/05/11 10:58:04;;;;;;;10.25;7.15;;;16.40;99.90;;;;;;5073140;28;20044;-79
2023/05/11 11:00:42;;;;;;;11.82;8.15;;;16.30;99.90;;;;;;5076427;28;20032;-80
2023/05/11 11:03:12;;;;;;;16.00;8.32;;;16.20;99.90;;;;;;5094018;28;20035;-80
2023/05/11 11:05:38;;;;;;;10.45;7.80;;;16.20;99.90;;;;;;5093654;28;20099;-79
2023/05/11 11:08:07;;;;;;;16.92;9.90;;;16.10;99.90;;;;;;5075652;28;20052;-80
2023/05/11 11:10:50;;;;;;;8.65;7.75;;;16.20;99.90;;;;;;5093502;28;20024;-79
2023/05/11 11:13:18;;;;;;;9.25;7.68;;;16.10;99.90;;;;;;5075874;28;20024;-81
2023/05/11 11:15:53;;;;;;;13.20;7.97;;;16.00;99.90;;;;;;5075662;28;20070;-81
2023/05/11 11:20:46;;;;;;;11.25;7.78;;;15.90;99.90;;;;;;5106729;27;20114;-79
2023/05/11 11:23:43;;;;;;;11.18;7.88;;;15.80;99.90;;;;;;5090138;28;20493;-79
2023/05/11 11:26:14;;;;;;;19.15;12.38;;;15.70;99.90;;;;;;5091028;28;20478;-80
2023/05/11 11:29:00;;;;;;;25.35;15.00;;;15.50;99.90;;;;;;5089970;28;20109;-80
2023/05/11 11:31:31;;;;;;;18.90;12.30;;;15.50;99.90;;;;;;5090897;28;20031;-80
2023/05/11 11:34:17;;;;;;;18.90;11.13;;;15.50;99.90;;;;;;5090091;28;20025;-80
2023/05/11 11:36:59;;;;;;;12.07;7.97;;;15.40;99.90;;;;;;5089640;28;20081;-81
2023/05/11 11:39:26;;;;;;;8.65;6.60;;;15.40;99.90;;;;;;5089453;28;20450;-80
2023/05/11 11:42:00;;;;;;;16.65;12.15;;;15.40;99.90;;;;;;5091088;28;20028;-81
2023/05/11 11:44:26;;;;;;;11.52;7.75;;;15.30;99.90;;;;;;5091232;28;20035;-81
2023/05/11 11:47:10;;;;;;;9.45;7.68;;;15.20;99.90;;;;;;5089289;28;20057;-78
2023/05/11 11:49:37;;;;;;;15.13;9.32;;;15.10;99.90;;;;;;5091167;28;20036;-80
2023/05/11 11:52:05;;;;;;;15.88;9.77;;;15.10;99.90;;;;;;5089506;28;20132;-79
2023/05/11 11:54:38;;;;;;;14.70;9.93;;;15.00;99.90;;;;;;5089201;28;20024;-80
2023/05/11 11:57:04;;;;;;;11.13;8.30;;;14.90;99.90;;;;;;5081170;28;20016;-83
2023/05/11 11:59:44;;;;;;;12.95;10.70;;;14.90;99.90;;;;;;5081241;28;20031;-84
2023/05/11 12:02:14;;;;;;;9.48;8.23;;;14.80;99.90;;;;;;5074955;28;20076;-84
2023/05/11 12:04:50;;;;;;;20.80;11.40;;;14.70;99.90;;;;;;5089275;28;20016;-82
2023/05/11 12:07:18;;;;;;;14.73;8.88;;;14.70;99.90;;;;;;5088936;28;20077;-83
2023/05/11 12:09:45;;;;;;;11.73;8.18;;;14.70;99.90;;;;;;5090452;28;20028;-82
2023/05/11 12:12:11;;;;;;;15.63;8.85;;;14.60;99.90;;;;;;5090199;28;20059;-83
2023/05/11 12:14:38;;;;;;;13.30;7.95;;;14.60;99.90;;;;;;5088911;28;20059;-84
2023/05/11 12:17:14;;;;;;;15.18;7.32;;;14.50;99.90;;;;;;5090403;28;20032;-84
2023/05/11 12:19:42;;;;;;;12.75;6.93;;;14.50;99.90;;;;;;5074178;28;20082;-82
2023/05/11 12:22:09;;;;;;;15.10;8.68;;;14.40;99.90;;;;;;5068463;28;20021;-82
2023/05/11 12:24:37;;;;;;;14.57;8.07;;;14.30;99.90;;;;;;5068619;28;20033;-83
2023/05/11 12:27:03;;;;;;;9.65;7.05;;;14.30;99.90;;;;;;5068576;28;20120;-82
2023/05/11 12:29:30;;;;;;;14.88;8.15;;;14.20;99.90;;;;;;5067701;28;20028;-81
2023/05/11 12:31:55;;;;;;;12.88;7.78;;;14.10;99.90;;;;;;5054844;28;20048;-83
2023/05/11 12:34:22;;;;;;;11.20;6.88;;;14.10;99.90;;;;;;5054835;28;20452;-81
2023/05/11 12:36:49;;;;;;;24.58;11.23;;;14.00;99.90;;;;;;5055181;28;20025;-83
2023/05/11 12:39:23;;;;;;;13.85;8.38;;;14.00;99.90;;;;;;5056511;28;20033;-81
2023/05/11 12:41:51;;;;;;;13.27;8.98;;;14.00;99.90;;;;;;5054800;28;20021;-80
2023/05/11 12:44:18;;;;;;;13.00;7.53;;;14.00;99.90;;;;;;5056338;28;20017;-81
2023/05/11 12:46:45;;;;;;;14.32;8.43;;;14.00;99.90;;;;;;5055075;28;20024;-82
2023/05/11 12:49:14;;;;;;;13.50;8.57;;;14.00;99.90;;;;;;5055617;28;20021;-82
2023/05/11 12:51:46;;;;;;;11.05;7.45;;;14.00;99.90;;;;;;5055883;28;20021;-83
2023/05/11 12:54:23;;;;;;;;;;;14.00;99.90;;;;;;5055355;28;20043;-81
2023/05/11 12:56:49;;;;;;;15.05;7.60;;;14.00;99.90;;;;;;5054582;28;19999;-83